Time;durP1;ratioP1;P1;durP2;ratioP2;P2;SDS_P1;SDS_P2;PMS_P1;PMS_P2;Temp;Humidity;BMP_temperature;BMP_pressure;BME280_temperature;BME280_humidity;BME280_pressure;Samples;Min_cycle;Max_cycle;Signal;HPM_P1;HPM_P2
2022/08/03 00:00:13;;;;;;;;;4.00;4.00;;;;;28.54;56.42;101307.22;5013528;28;45466;-69
2022/08/03 00:02:39;;;;;;;;;6.33;3.33;;;;;28.56;56.63;101313.41;5017750;28;45427;-68
2022/08/03 00:05:07;;;;;;;;;3.33;3.33;;;;;28.57;55.91;101311.44;5021474;28;46422;-68
2022/08/03 00:07:32;;;;;;;;;4.00;4.00;;;;;28.51;57.07;101313.31;5029125;28;45703;-68
2022/08/03 00:09:57;;;;;;;;;6.33;6.33;;;;;28.58;56.71;101310.34;5017010;28;45455;-66
2022/08/03 00:12:26;;;;;;;;;6.33;4.33;;;;;28.62;56.43;101317.97;5018340;28;45397;-68
2022/08/03 00:14:51;;;;;;;;;3.67;3.67;;;;;28.56;56.53;101319.00;5016992;28;46377;-66
2022/08/03 00:17:16;;;;;;;;;3.67;3.33;;;;;28.52;56.89;101323.38;5013453;28;45359;-69
2022/08/03 00:19:42;;;;;;;;;3.00;3.00;;;;;28.61;56.14;101321.88;5022682;28;45475;-67
2022/08/03 00:25:29;;;;;;;;;5.67;3.67;;;;;28.53;56.07;101327.03;5008146;28;45386;-67
2022/08/03 00:27:54;;;;;;;;;3.67;3.33;;;;;28.50;56.08;101331.16;5018759;28;45319;-67
2022/08/03 00:30:20;;;;;;;;;4.00;4.00;;;;;28.50;56.64;101322.78;5019945;28;45448;-67
2022/08/03 00:32:45;;;;;;;;;5.67;5.00;;;;;28.52;55.33;101322.53;5018366;28;45437;-67
2022/08/03 00:35:11;;;;;;;;;4.67;4.67;;;;;28.53;55.65;101325.09;5019086;28;45454;-67
2022/08/03 00:37:36;;;;;;;;;7.00;4.00;;;;;28.45;55.84;101321.84;5016587;28;45449;-66
2022/08/03 00:40:02;;;;;;;;;6.67;4.67;;;;;28.33;56.41;101310.75;5018818;28;45177;-67
2022/08/03 00:42:27;;;;;;;;;6.00;4.67;;;;;28.38;56.68;101327.59;5015004;28;45395;-67
2022/08/03 00:44:53;;;;;;;;;4.33;4.33;;;;;28.38;55.45;101318.38;5019809;28;46946;-67
2022/08/03 00:47:18;;;;;;;;;3.67;3.33;;;;;28.28;56.04;101319.88;5014296;28;45268;-67
2022/08/03 00:49:44;;;;;;;;;3.00;3.00;;;;;28.20;55.68;101313.88;5015182;28;45263;-67
2022/08/03 00:52:10;;;;;;;;;4.00;3.00;;;;;28.14;56.46;101315.66;5013066;28;45481;-68
2022/08/03 00:54:37;;;;;;;;;5.00;4.00;;;;;28.06;56.15;101313.28;5021671;28;45568;-67
2022/08/03 00:57:03;;;;;;;;;7.33;6.00;;;;;27.97;56.09;101303.63;5019226;28;45469;-67
2022/08/03 00:59:29;;;;;;;;;2.33;1.33;;;;;28.04;56.18;101309.06;5019282;28;45470;-67
2022/08/03 01:01:55;;;;;;;;;5.00;5.00;;;;;28.02;56.15;101308.44;5017678;28;45387;-67
2022/08/03 01:04:21;;;;;;;;;5.67;4.00;;;;;27.95;56.64;101299.38;5021634;28;45394;-67
2022/08/03 01:13:49;;;;;;;;;6.00;4.67;;;;;27.97;56.09;101291.59;4959820;28;45384;-67
2022/08/03 01:16:30;;;;;;;;;3.00;3.00;;;;;28.03;55.54;101296.19;4970352;28;46074;-67
2022/08/03 01:19:26;;;;;;;;;12.50;10.75;;;;;27.98;55.96;101287.72;4967613;28;45413;-68
2022/08/03 01:21:51;;;;;;;;;6.67;5.33;;;;;27.93;55.74;101295.97;5012276;28;45631;-67
2022/08/03 01:24:35;;;;;;;;;4.00;4.00;;;;;27.83;56.47;101285.47;5022743;28;45599;-68
2022/08/03 01:27:13;;;;;;;;;4.00;4.00;;;;;27.84;56.46;101281.56;5015387;28;45679;-68
2022/08/03 01:30:04;;;;;;;;;5.00;5.00;;;;;27.75;56.40;101278.34;5021609;28;45717;-68
2022/08/03 01:32:39;;;;;;;;;6.67;3.00;;;;;27.65;56.36;101277.28;5017220;28;45267;-68
2022/08/03 01:35:10;;;;;;;;;7.33;4.67;;;;;27.55;56.99;101283.50;5018206;28;45339;-67
2022/08/03 01:37:48;;;;;;;;;5.00;5.00;;;;;27.43;57.41;101274.28;5016833;28;46491;-68
2022/08/03 01:40:16;;;;;;;;;3.33;3.33;;;;;27.37;57.66;101280.88;5019693;28;45640;-68
2022/08/03 01:42:44;;;;;;;;;4.67;3.00;;;;;27.30;57.24;101281.00;5015883;28;45312;-68
2022/08/03 01:45:12;;;;;;;;;2.33;2.33;;;;;27.22;57.96;101273.00;5017161;28;45326;-68
2022/08/03 01:47:39;;;;;;;;;3.67;3.00;;;;;27.13;58.79;101269.75;5011587;28;46181;-68
2022/08/03 01:50:07;;;;;;;;;2.67;2.33;;;;;27.03;59.36;101269.50;5015978;28;45454;-67
2022/08/03 01:52:33;;;;;;;;;3.00;3.00;;;;;27.05;58.46;101267.31;5008822;28;45291;-67
2022/08/03 01:55:01;;;;;;;;;3.33;3.00;;;;;27.02;59.81;101269.78;5014907;28;45492;-68
2022/08/03 01:57:28;;;;;;;;;3.00;3.00;;;;;26.98;59.13;101272.19;5014261;28;45602;-68
2022/08/03 01:59:56;;;;;;;;;2.00;2.00;;;;;26.99;58.41;101273.88;5000815;28;45650;-67
2022/08/03 02:02:22;;;;;;;;;1.33;1.33;;;;;26.88;59.47;101266.34;5018312;28;45435;-67
2022/08/03 02:04:50;;;;;;;;;2.67;2.67;;;;;26.85;59.15;101272.41;5018940;28;45268;-67
2022/08/03 02:07:16;;;;;;;;;1.00;1.00;;;;;26.93;58.18;101262.84;5035661;28;47129;-67
2022/08/03 02:09:44;;;;;;;;;3.00;3.00;;;;;26.92;59.09;101266.75;5022699;28;45392;-68
2022/08/03 02:12:11;;;;;;;;;3.00;3.00;;;;;26.78;59.80;101270.84;5022008;28;45510;-67
2022/08/03 02:14:39;;;;;;;;;2.00;2.00;;;;;26.77;59.95;101269.13;5025833;28;45331;-67
2022/08/03 02:17:06;;;;;;;;;2.00;2.00;;;;;26.85;59.34;101272.41;5020518;28;45516;-68
2022/08/03 02:19:33;;;;;;;;;3.00;2.00;;;;;26.92;59.01;101256.44;5040270;28;45470;-67
2022/08/03 02:21:59;;;;;;;;;3.00;3.00;;;;;26.97;58.80;101259.31;5017855;28;45488;-68
2022/08/03 02:24:25;;;;;;;;;3.33;2.00;;;;;26.95;58.59;101253.16;5025535;28;45451;-68
2022/08/03 02:26:54;;;;;;;;;3.00;3.00;;;;;26.92;59.36;101262.00;5017793;28;46869;-67
2022/08/03 02:29:26;;;;;;;;;4.00;2.00;;;;;26.71;59.99;101254.22;5024938;28;45379;-67
2022/08/03 02:31:56;;;;;;;;;4.00;2.00;;;;;26.65;60.49;101256.06;5022550;28;45611;-67
2022/08/03 02:34:25;;;;;;;;;2.00;2.00;;;;;26.63;60.02;101247.09;5025451;28;45288;-67
2022/08/03 02:36:52;;;;;;;;;4.33;3.00;;;;;26.72;59.91;101255.94;5016933;28;46952;-67
2022/08/03 02:39:20;;;;;;;;;1.00;1.00;;;;;26.69;60.24;101264.78;5024889;28;45322;-67
2022/08/03 02:41:50;;;;;;;;;3.00;3.00;;;;;26.63;60.61;101249.88;5014242;28;45379;-66
2022/08/03 02:44:20;;;;;;;;;3.67;3.67;;;;;26.73;59.23;101257.63;5011856;28;45382;-67
2022/08/03 02:46:48;;;;;;;;;4.33;4.33;;;;;26.70;60.16;101252.53;5014183;28;45255;-67
2022/08/03 02:49:17;;;;;;;;;3.00;3.00;;;;;26.66;59.94;101251.34;5023423;28;45260;-67
2022/08/03 02:51:46;;;;;;;;;6.33;4.67;;;;;26.66;60.29;101251.34;5014195;28;45343;-67
2022/08/03 02:54:15;;;;;;;;;3.67;3.00;;;;;26.61;60.48;101249.25;5024609;28;45251;-68
2022/08/03 02:56:42;;;;;;;;;5.67;5.67;;;;;26.59;60.69;101245.84;5020934;28;45485;-67
2022/08/03 02:59:09;;;;;;;;;6.33;6.00;;;;;26.50;60.80;101240.91;5020502;28;45330;-67
2022/08/03 03:01:35;;;;;;;;;5.00;5.00;;;;;26.54;60.88;101247.69;5021223;28;45340;-67
2022/08/03 03:04:01;;;;;;;;;5.00;4.33;;;;;26.52;61.06;101241.53;5019275;28;45359;-68
2022/08/03 03:06:27;;;;;;;;;5.33;3.67;;;;;26.48;61.19;101235.56;5018322;28;45723;-68
2022/08/03 03:08:53;;;;;;;;;6.00;4.33;;;;;26.38;61.98;101245.59;5017466;28;45382;-67
2022/08/03 03:11:20;;;;;;;;;5.00;5.00;;;;;26.29;62.96;101237.63;5016369;28;46240;-67
2022/08/03 03:13:47;;;;;;;;;4.67;3.00;;;;;26.31;62.33;101243.78;5019552;28;45417;-67
2022/08/03 03:16:14;;;;;;;;;4.00;4.00;;;;;26.42;60.90;101232.91;5019299;28;45384;-67
2022/08/03 03:18:43;;;;;;;;;4.00;4.00;;;;;26.48;61.67;101231.94;5019858;28;45360;-67
2022/08/03 03:21:10;;;;;;;;;3.00;3.00;;;;;26.54;61.02;101234.59;5013376;28;45379;-68
2022/08/03 03:23:37;;;;;;;;;4.00;3.00;;;;;26.53;61.38;101226.47;5024315;28;45564;-68
2022/08/03 03:26:03;;;;;;;;;2.00;2.00;;;;;26.48;61.19;101234.72;5016938;28;45787;-68
2022/08/03 03:28:30;;;;;;;;;4.33;3.67;;;;;26.52;61.26;101235.94;5023685;28;45288;-68
2022/08/03 03:30:56;;;;;;;;;6.67;3.33;;;;;26.51;61.13;101228.66;5017832;28;45416;-68
2022/08/03 03:33:22;;;;;;;;;5.00;5.00;;;;;26.48;61.34;101237.50;5024261;28;45425;-68
2022/08/03 03:35:49;;;;;;;;;3.67;3.67;;;;;26.33;62.07;101229.63;5017285;28;46013;-68
2022/08/03 03:38:14;;;;;;;;;5.00;5.00;;;;;26.28;62.42;101232.28;5022845;28;45406;-68
2022/08/03 03:40:40;;;;;;;;;4.33;4.00;;;;;26.31;61.90;101229.00;5020937;28;45347;-68
2022/08/03 03:43:11;;;;;;;;;3.00;3.00;;;;;26.30;61.99;101217.00;5015422;28;45425;-68
2022/08/03 03:45:41;;;;;;;;;6.67;5.00;;;;;26.37;62.00;101218.84;5017279;28;48348;-68
2022/08/03 03:48:07;;;;;;;;;5.00;4.00;;;;;26.38;61.17;101218.59;5018378;28;45975;-68
2022/08/03 03:50:34;;;;;;;;;6.67;5.00;;;;;26.42;61.41;101227.31;5019821;28;45367;-68
2022/08/03 03:53:01;;;;;;;;;4.00;4.00;;;;;26.34;62.17;101225.75;5023687;28;45252;-68
2022/08/03 03:55:27;;;;;;;;;4.00;4.00;;;;;26.23;62.81;101223.75;5022112;28;47647;-68
2022/08/03 03:57:53;;;;;;;;;5.67;5.00;;;;;26.16;62.98;101221.06;5019650;28;45325;-69
2022/08/03 04:00:19;;;;;;;;;8.33;5.33;;;;;26.07;63.74;101218.91;5021532;28;45356;-70
2022/08/03 04:02:45;;;;;;;;;4.67;3.67;;;;;26.02;63.92;101215.94;5018349;28;45441;-68
2022/08/03 04:11:13;;;;;;;;;6.33;6.00;;;;;26.03;62.92;101215.72;5020223;28;45377;-68
2022/08/03 04:13:43;;;;;;;;;9.33;7.33;;;;;26.08;63.11;101226.16;5022253;28;45390;-68
2022/08/03 04:16:13;;;;;;;;;7.00;7.00;;;;;26.05;63.18;101224.69;5012857;28;46516;-68
2022/08/03 04:18:41;;;;;;;;;9.00;9.00;;;;;26.01;63.53;101222.63;5022550;28;45442;-68
2022/08/03 04:21:10;;;;;;;;;11.00;8.00;;;;;26.00;63.76;101232.94;5028860;28;45317;-68
2022/08/03 04:23:40;;;;;;;;;6.00;6.00;;;;;26.10;63.29;101229.53;5022127;28;45475;-68
2022/08/03 04:26:10;;;;;;;;;7.00;7.00;;;;;26.11;63.80;101237.66;5018569;28;45285;-68
2022/08/03 04:28:38;;;;;;;;;11.67;9.00;;;;;26.10;62.79;101226.75;5022713;28;45337;-70
2022/08/03 04:31:06;;;;;;;;;8.33;8.33;;;;;26.06;63.35;101226.41;5019570;28;45394;-68
2022/08/03 04:33:34;;;;;;;;;9.00;8.00;;;;;25.97;64.32;101225.03;5019178;28;45530;-67
2022/08/03 04:36:02;;;;;;;;;13.67;12.67;;;;;25.95;64.09;101227.19;5016059;28;45477;-67
2022/08/03 04:38:30;;;;;;;;;11.00;11.00;;;;;25.94;64.51;101225.50;5022613;28;45422;-67
2022/08/03 04:40:56;;;;;;;;;12.33;10.33;;;;;25.95;64.06;101229.97;5016597;28;45326;-67
2022/08/03 04:43:24;;;;;;;;;11.00;10.67;;;;;25.99;63.78;101222.88;5022850;28;45176;-67
2022/08/03 04:45:50;;;;;;;;;12.00;9.00;;;;;26.02;63.71;101233.50;5016500;28;45624;-67
2022/08/03 04:48:16;;;;;;;;;10.00;10.00;;;;;26.11;63.65;101229.31;5026992;28;45351;-68
2022/08/03 04:50:42;;;;;;;;;12.00;12.00;;;;;26.15;62.99;101226.91;5016628;28;45284;-67
2022/08/03 04:53:08;;;;;;;;;12.33;9.00;;;;;26.17;63.42;101228.34;5016478;28;45259;-68
2022/08/03 04:55:34;;;;;;;;;11.67;10.33;;;;;26.23;63.36;101226.53;5018083;28;45513;-68
2022/08/03 04:58:01;;;;;;;;;10.67;10.00;;;;;26.23;63.68;101235.72;5015455;28;45189;-68
2022/08/03 05:00:27;;;;;;;;;14.33;12.67;;;;;26.22;62.91;101227.63;5020656;28;45224;-67
2022/08/03 05:02:54;;;;;;;;;10.00;10.00;;;;;26.27;63.08;101225.84;5022546;28;45398;-68
2022/08/03 05:05:20;;;;;;;;;15.67;12.67;;;;;26.34;62.80;101232.16;5019611;28;46470;-67
2022/08/03 05:07:45;;;;;;;;;9.33;9.33;;;;;26.33;63.12;101230.47;5013502;28;45471;-68
2022/08/03 05:10:11;;;;;;;;;9.33;9.33;;;;;26.39;62.46;101236.16;5019259;28;45586;-68
2022/08/03 05:12:37;;;;;;;;;11.00;8.00;;;;;26.47;62.53;101230.22;5013196;28;45321;-68
2022/08/03 05:15:03;;;;;;;;;10.00;10.00;;;;;26.45;61.77;101229.59;5013695;28;45701;-67
2022/08/03 05:17:29;;;;;;;;;13.33;11.67;;;;;26.48;62.34;101227.19;5011379;28;45375;-68
2022/08/03 05:19:55;;;;;;;;;10.00;8.00;;;;;26.61;61.17;101238.09;5021091;28;45509;-68
2022/08/03 05:22:21;;;;;;;;;11.33;9.67;;;;;26.72;60.85;101228.06;5016608;28;45714;-68
2022/08/03 05:24:47;;;;;;;;;11.00;10.00;;;;;27.57;58.52;101228.28;5021442;28;45286;-68
2022/08/03 05:27:18;;;;;;;;;9.00;9.00;;;;;28.43;54.79;101241.03;5019714;28;45822;-69
2022/08/03 05:29:43;;;;;;;;;9.67;7.00;;;;;28.31;54.74;101237.50;5022556;28;45391;-69
2022/08/03 05:32:09;;;;;;;;;8.00;8.00;;;;;28.09;55.14;101245.75;5014961;28;45332;-68
2022/08/03 05:34:34;;;;;;;;;8.00;8.00;;;;;27.97;55.91;101244.13;5007956;28;46294;-68
2022/08/03 05:36:59;;;;;;;;;8.33;8.33;;;;;28.01;55.37;101245.31;5026935;28;45312;-70
2022/08/03 05:39:25;;;;;;;;;9.00;9.00;;;;;27.88;55.78;101238.94;5021238;28;45485;-67
2022/08/03 05:41:50;;;;;;;;;9.67;9.00;;;;;27.88;56.02;101238.09;5012743;28;45253;-69
2022/08/03 05:44:16;;;;;;;;;8.00;8.00;;;;;27.87;55.80;101230.81;5039586;28;45927;-68
2022/08/03 05:46:41;;;;;;;;;15.00;11.67;;;;;27.94;55.40;101234.28;5018000;28;45451;-68
2022/08/03 05:49:06;;;;;;;;;15.33;12.67;;;;;27.93;55.31;101234.53;5024775;28;45247;-68
2022/08/03 05:51:31;;;;;;;;;16.00;16.00;;;;;28.38;54.53;101242.91;5006929;28;45879;-68
2022/08/03 05:53:57;;;;;;;;;9.33;9.33;;;;;29.03;52.37;101248.69;5020474;28;45391;-68
2022/08/03 05:56:24;;;;;;;;;10.67;10.67;;;;;29.03;51.80;101240.31;5018381;28;45489;-68
2022/08/03 05:58:50;;;;;;;;;11.67;11.33;;;;;28.84;52.77;101252.91;5021400;28;45386;-69
2022/08/03 06:01:16;;;;;;;;;12.00;11.00;;;;;28.86;52.83;101242.28;5018451;28;45340;-69
2022/08/03 06:03:41;;;;;;;;;13.33;9.00;;;;;28.91;52.42;101245.19;5018720;28;46346;-69
2022/08/03 06:06:06;;;;;;;;;15.00;11.00;;;;;28.92;52.02;101255.28;5017761;28;45499;-69
2022/08/03 06:08:33;;;;;;;;;10.33;10.33;;;;;28.90;52.61;101244.34;5017482;28;45417;-69
2022/08/03 06:10:58;;;;;;;;;10.33;8.67;;;;;29.03;52.43;101257.09;5008136;28;45276;-69
2022/08/03 06:13:24;;;;;;;;;9.67;7.67;;;;;29.09;52.10;101253.25;5024798;28;47754;-69
2022/08/03 06:15:49;;;;;;;;;9.33;8.00;;;;;29.08;52.40;101254.34;5020020;28;45326;-69
2022/08/03 06:18:14;;;;;;;;;12.67;12.00;;;;;29.09;52.00;101253.25;5018395;28;45331;-69
2022/08/03 06:20:40;;;;;;;;;9.67;9.67;;;;;29.16;51.98;101253.91;5018836;28;45733;-69
2022/08/03 06:23:06;;;;;;;;;10.67;9.00;;;;;29.35;51.31;101260.94;5022325;28;46205;-68
2022/08/03 06:25:31;;;;;;;;;9.00;7.33;;;;;29.44;50.63;101257.69;5020202;28;45950;-69
2022/08/03 06:27:58;;;;;;;;;11.00;9.33;;;;;29.54;50.17;101257.78;5018427;28;45502;-69
2022/08/03 06:30:23;;;;;;;;;12.00;9.00;;;;;29.70;49.69;101256.88;5019334;28;45402;-68
2022/08/03 06:32:49;;;;;;;;;11.67;9.33;;;;;30.21;48.22;101246.22;5015421;28;45461;-67
2022/08/03 06:35:15;;;;;;;;;8.67;8.67;;;;;30.51;47.09;101257.72;5022570;28;45694;-68
2022/08/03 06:37:43;;;;;;;;;10.67;10.00;;;;;30.32;48.10;101253.63;5015274;28;45268;-68
2022/08/03 06:40:10;;;;;;;;;8.00;6.33;;;;;30.24;48.11;101251.28;5022778;28;45589;-67
2022/08/03 06:42:35;;;;;;;;;7.33;7.00;;;;;30.27;48.17;101250.75;5016635;28;45381;-68
2022/08/03 06:45:02;;;;;;;;;7.67;7.67;;;;;29.98;48.31;101253.84;5022253;28;45247;-69
2022/08/03 06:47:27;;;;;;;;;10.67;10.00;;;;;29.95;48.32;101259.16;5014853;28;45449;-69
2022/08/03 06:49:53;;;;;;;;;7.00;7.00;;;;;29.76;48.82;101255.81;5022415;28;45325;-67
2022/08/03 06:52:18;;;;;;;;;7.67;7.67;;;;;29.91;48.80;101249.53;5014732;28;48545;-68
2022/08/03 06:54:43;;;;;;;;;8.67;6.67;;;;;30.11;48.08;101252.56;5024497;28;45323;-68
2022/08/03 06:57:10;;;;;;;;;9.00;8.00;;;;;30.24;47.77;101254.09;5017226;28;45443;-68
2022/08/03 06:59:35;;;;;;;;;9.00;7.67;;;;;30.40;47.69;101261.50;5021535;28;45497;-68
2022/08/03 07:02:01;;;;;;;;;8.00;6.33;;;;;30.52;47.10;101259.41;5016845;28;46040;-68
2022/08/03 07:04:26;;;;;;;;;10.00;5.67;;;;;30.61;46.73;101265.38;5020247;28;45386;-68
2022/08/03 07:06:51;;;;;;;;;9.00;6.33;;;;;30.61;47.01;101257.81;5017916;28;45439;-68
2022/08/03 07:09:17;;;;;;;;;7.00;7.00;;;;;30.58;46.78;101255.53;5013863;28;45426;-67
2022/08/03 07:11:42;;;;;;;;;6.67;5.67;;;;;30.53;47.01;101256.34;5010609;28;46913;-67
2022/08/03 07:14:07;;;;;;;;;11.33;8.00;;;;;30.63;46.70;101255.56;5022080;28;45304;-69
2022/08/03 07:16:33;;;;;;;;;9.00;7.67;;;;;30.64;46.57;101254.44;5013311;28;45359;-67
2022/08/03 07:18:58;;;;;;;;;7.00;6.67;;;;;30.58;46.43;101252.72;5024241;28;45261;-69
2022/08/03 07:21:23;;;;;;;;;10.67;8.00;;;;;30.70;45.86;101261.78;5017547;28;46485;-67
2022/08/03 07:23:49;;;;;;;;;7.00;7.00;;;;;30.87;45.89;101254.06;5019781;28;45277;-68
2022/08/03 07:26:14;;;;;;;;;7.67;7.00;;;;;30.88;45.58;101261.34;5018465;28;45244;-68
2022/08/03 07:28:39;;;;;;;;;8.67;8.33;;;;;30.99;45.51;101248.22;5019101;28;45331;-67
2022/08/03 07:31:05;;;;;;;;;12.33;12.33;;;;;31.06;45.13;101253.63;5019478;28;51764;-68
2022/08/03 07:33:30;;;;;;;;;9.00;9.00;;;;;30.86;45.39;101249.56;5011561;28;45399;-67
2022/08/03 07:35:55;;;;;;;;;7.33;6.33;;;;;31.05;45.43;101254.72;5013594;28;45358;-67
2022/08/03 07:38:21;;;;;;;;;8.67;5.33;;;;;31.13;45.05;101254.22;5018349;28;45468;-67
2022/08/03 07:40:46;;;;;;;;;7.67;6.33;;;;;31.29;44.77;101237.19;5018118;28;45318;-68
2022/08/03 07:43:11;;;;;;;;;6.00;6.00;;;;;31.43;44.10;101247.91;5021892;28;45351;-68
2022/08/03 07:45:37;;;;;;;;;4.67;4.67;;;;;31.45;44.14;101246.50;5016056;28;45407;-68
2022/08/03 07:48:02;;;;;;;;;8.33;5.67;;;;;31.41;43.95;101245.38;5016079;28;45327;-66
2022/08/03 07:50:28;;;;;;;;;6.00;6.00;;;;;31.50;44.06;101248.50;5020048;28;46455;-67
2022/08/03 07:52:54;;;;;;;;;6.00;4.33;;;;;31.66;43.21;101248.31;5015816;28;45543;-69
2022/08/03 07:55:23;;;;;;;;;6.00;6.00;;;;;31.79;42.62;101246.06;5021025;28;45514;-68
2022/08/03 07:58:06;;;;;;;;;6.33;5.00;;;;;32.02;42.57;101252.03;5015530;28;45177;-68
2022/08/03 08:00:32;;;;;;;;;4.00;4.00;;;;;31.92;40.86;101251.19;5016622;28;48117;-67
2022/08/03 08:02:58;;;;;;;;;14.67;11.67;;;;;31.90;41.84;101243.03;5016416;28;45216;-67
2022/08/03 08:05:24;;;;;;;;;9.67;7.00;;;;;32.08;41.76;101255.69;5020642;28;45434;-67
2022/08/03 08:07:49;;;;;;;;;7.00;5.00;;;;;32.33;41.05;101247.31;5018793;28;45228;-67
2022/08/03 08:10:15;;;;;;;;;5.67;5.67;;;;;32.24;39.95;101249.00;5018247;28;45359;-68
2022/08/03 08:12:40;;;;;;;;;7.00;5.67;;;;;32.09;40.35;101254.56;5022534;28;45292;-67
2022/08/03 08:15:06;;;;;;;;;12.00;9.33;;;;;32.17;40.76;101248.44;5021377;28;45177;-68
2022/08/03 08:17:53;;;;;;;;;4.00;2.00;;;;;31.89;41.41;101257.34;5020353;28;45537;-68
2022/08/03 08:20:24;;;;;;;;;7.67;6.33;;;;;32.36;40.89;101258.03;5020283;28;46098;-67
2022/08/03 08:22:50;;;;;;;;;5.00;5.00;;;;;32.84;40.15;101248.16;5019129;28;45315;-68
2022/08/03 08:25:15;;;;;;;;;6.00;5.00;;;;;33.12;38.02;101248.63;5019618;28;45190;-67
2022/08/03 08:27:46;;;;;;;;;3.00;3.00;;;;;33.38;38.52;101249.44;5022242;28;45215;-67
2022/08/03 08:30:13;;;;;;;;;9.33;6.67;;;;;33.56;36.96;101243.97;5020675;28;46594;-69
2022/08/03 08:32:38;;;;;;;;;7.67;6.00;;;;;33.70;37.46;101244.19;5017711;28;45489;-67
2022/08/03 08:35:05;;;;;;;;;6.00;6.00;;;;;33.61;35.55;101251.53;5017522;28;45508;-68
2022/08/03 08:37:31;;;;;;;;;7.00;6.00;;;;;33.59;36.42;101242.56;5012713;28;45377;-68
2022/08/03 08:39:57;;;;;;;;;7.00;7.00;;;;;33.78;35.89;101231.47;5021126;28;45709;-68
2022/08/03 08:42:23;;;;;;;;;7.00;6.00;;;;;34.16;35.65;101235.44;5017204;28;45440;-68
2022/08/03 08:44:48;;;;;;;;;6.00;6.00;;;;;33.97;34.42;101227.69;5022039;28;45433;-68
2022/08/03 08:47:15;;;;;;;;;5.00;5.00;;;;;34.09;34.39;101230.16;5015785;28;45422;-69
2022/08/03 08:49:40;;;;;;;;;5.00;5.00;;;;;34.27;32.68;101234.25;5020285;28;45469;-68
2022/08/03 08:52:10;;;;;;;;;5.67;5.67;;;;;34.18;33.20;101228.38;5015233;28;45339;-68
2022/08/03 08:54:39;;;;;;;;;5.33;5.33;;;;;34.51;33.21;101232.34;5018289;28;45286;-68
2022/08/03 08:57:06;;;;;;;;;7.00;7.00;;;;;34.81;32.58;101231.25;5016406;28;45395;-67
2022/08/03 08:59:35;;;;;;;;;5.67;5.67;;;;;34.94;31.48;101230.53;5016146;28;45335;-68
2022/08/03 09:02:01;;;;;;;;;4.67;4.67;;;;;35.11;31.61;101225.25;5016895;28;45673;-66
2022/08/03 09:04:30;;;;;;;;;4.00;4.00;;;;;35.44;31.29;101222.59;5013629;28;45310;-68
2022/08/03 09:06:55;;;;;;;;;7.00;5.33;;;;;35.45;31.17;101224.28;5016290;28;45539;-68
2022/08/03 09:09:20;;;;;;;;;6.67;4.33;;;;;35.36;31.82;101228.94;5005127;28;47069;-66
2022/08/03 09:11:48;;;;;;;;;7.00;5.67;;;;;35.89;30.75;101224.81;5009360;28;45414;-67
2022/08/03 09:14:13;;;;;;;;;6.33;6.33;;;;;36.26;30.04;101223.13;5021009;28;45762;-67
2022/08/03 09:16:59;;;;;;;;;5.00;5.00;;;;;36.54;29.22;101218.38;5017914;28;45577;-68
2022/08/03 09:19:24;;;;;;;;;5.67;5.67;;;;;36.50;30.44;101223.00;5013668;28;45507;-66
2022/08/03 09:22:06;;;;;;;;;5.33;3.67;;;;;36.78;29.33;101219.09;5015352;28;45417;-67
2022/08/03 09:24:32;;;;;;;;;4.67;4.00;;;;;37.00;30.17;101218.38;5013756;28;45514;-67
2022/08/03 09:26:57;;;;;;;;;6.33;6.00;;;;;37.29;28.85;101218.09;5018574;28;45592;-67
2022/08/03 09:29:23;;;;;;;;;4.67;4.67;;;;;37.45;29.51;101210.94;5025537;28;46301;-67
2022/08/03 09:32:00;;;;;;;;;3.67;3.67;;;;;37.36;28.06;101212.84;5019637;28;45315;-67
2022/08/03 09:34:27;;;;;;;;;4.67;4.67;;;;;37.19;27.29;101224.00;5025037;28;45427;-67
2022/08/03 09:36:53;;;;;;;;;4.00;4.00;;;;;36.66;27.86;101210.28;5017495;28;45426;-67
2022/08/03 09:39:20;;;;;;;;;4.33;3.67;;;;;36.94;29.15;101211.97;5023773;28;48064;-67
2022/08/03 09:42:16;;;;;;;;;4.67;4.67;;;;;37.63;28.29;101218.47;5015795;28;45398;-67
2022/08/03 09:44:49;;;;;;;;;3.00;3.00;;;;;38.03;26.68;101215.84;5025343;28;45343;-67
2022/08/03 09:47:27;;;;;;;;;4.67;3.33;;;;;38.29;27.87;101213.22;5013060;28;45502;-67
2022/08/03 09:50:01;;;;;;;;;3.67;3.67;;;;;37.88;25.79;101216.22;5022209;28;46778;-67
2022/08/03 09:52:39;;;;;;;;;3.67;3.67;;;;;37.88;25.47;101210.53;5016802;28;45354;-67
2022/08/03 09:55:11;;;;;;;;;6.00;4.67;;;;;37.74;26.05;101204.91;5009548;28;45426;-67
2022/08/03 09:57:36;;;;;;;;;6.00;6.00;;;;;38.03;26.96;101178.97;5020884;28;45467;-67
2022/08/03 10:00:09;;;;;;;;;2.67;2.67;;;;;38.74;24.57;101191.31;5023575;28;45486;-67
2022/08/03 10:02:34;;;;;;;;;2.67;2.67;;;;;38.74;24.35;101194.16;5016888;28;45490;-68
2022/08/03 10:04:59;;;;;;;;;4.00;4.00;;;;;38.48;24.82;101189.16;5021203;28;45374;-67
2022/08/03 10:07:26;;;;;;;;;7.00;3.00;;;;;38.83;24.92;101197.88;5016850;28;45482;-67
2022/08/03 10:09:54;;;;;;;;;5.00;5.00;;;;;39.46;25.50;101188.94;5014251;28;47302;-66
2022/08/03 10:12:20;;;;;;;;;6.00;4.50;;;;;39.76;24.30;101184.28;5019372;28;45377;-68
2022/08/03 10:14:46;;;;;;;;;7.00;4.00;;;;;40.23;24.31;101185.31;5024715;28;45360;-68
2022/08/03 10:17:12;;;;;;;;;6.33;3.67;;;;;40.69;23.84;101183.75;5015950;28;45529;-68
2022/08/03 10:19:37;;;;;;;;;4.75;4.75;;;;;41.04;22.76;101185.28;5023784;28;45244;-68
2022/08/03 10:22:09;;;;;;;;;4.00;2.00;;;;;39.67;23.07;101181.44;5013974;28;45339;-67
2022/08/03 10:24:36;;;;;;;;;5.75;4.75;;;;;39.84;23.04;101180.66;5022112;28;45283;-68
2022/08/03 10:27:05;;;;;;;;;5.33;5.33;;;;;39.87;23.68;101173.47;5015660;28;45490;-68
2022/08/03 10:29:37;;;;;;;;;6.33;4.33;;;;;40.54;23.08;101167.19;5024651;28;45380;-68
2022/08/03 10:32:08;;;;;;;;;3.00;3.00;;;;;41.03;22.19;101171.34;5017347;28;45629;-68
2022/08/03 10:34:36;;;;;;;;;5.50;4.25;;;;;41.39;21.83;101174.53;5016471;28;45493;-68
2022/08/03 10:37:09;;;;;;;;;5.67;4.67;;;;;41.53;21.19;101168.59;5022475;28;45353;-67
2022/08/03 10:39:35;;;;;;;;;4.00;4.00;;;;;41.86;21.66;101171.53;5024259;28;46241;-67
2022/08/03 10:42:02;;;;;;;;;3.75;2.75;;;;;41.92;21.26;101165.28;5018735;28;45920;-67
2022/08/03 10:44:36;;;;;;;;;3.75;3.75;;;;;42.16;21.54;101150.25;5021992;28;45317;-68
2022/08/03 10:47:02;;;;;;;;;8.75;7.75;;;;;41.80;21.42;101152.91;5009749;28;45427;-68
2022/08/03 10:49:28;;;;;;;;;7.25;3.75;;;;;41.87;21.10;101162.59;5024280;28;46522;-67
2022/08/03 10:51:54;;;;;;;;;4.25;4.00;;;;;42.21;20.87;101155.75;5018551;28;45350;-68
2022/08/03 10:57:33;;;;;;;;;3.75;3.75;;;;;42.06;20.08;101147.84;5019815;28;45362;-68
2022/08/03 10:57:44;;;;;;;;;4.00;2.75;;;;;41.73;19.87;101152.63;5018208;28;45349;-68
2022/08/03 11:00:14;;;;;;;;;3.75;3.25;;;;;42.33;20.29;101147.25;5009630;28;45544;-67
2022/08/03 11:03:03;;;;;;;;;5.75;4.25;;;;;42.85;19.84;101135.19;5015392;28;45421;-67
2022/08/03 11:05:29;;;;;;;;;5.50;4.50;;;;;42.93;18.79;101139.97;5009731;28;45346;-69
2022/08/03 11:08:33;;;;;;;;;7.25;6.25;;;;;42.93;20.36;101145.69;5005869;28;45563;-69
2022/08/03 11:11:17;;;;;;;;;4.75;3.00;;;;;42.98;19.98;101139.72;5005563;28;45550;-67
2022/08/03 11:14:04;;;;;;;;;3.75;3.75;;;;;42.61;20.65;101138.00;5019117;28;45465;-67
2022/08/03 11:16:36;;;;;;;;;4.75;3.50;;;;;43.19;19.68;101135.91;5017556;28;45355;-67
2022/08/03 11:19:07;;;;;;;;;3.50;3.50;;;;;43.31;19.45;101136.75;5032741;28;45455;-68
2022/08/03 11:21:50;;;;;;;;;3.75;3.75;;;;;43.15;19.84;101134.97;5016324;28;46162;-68
2022/08/03 11:24:42;;;;;;;;;3.25;2.00;;;;;43.44;18.46;101135.53;5019894;28;45395;-68
2022/08/03 11:27:13;;;;;;;;;0.00;0.00;;;;;43.68;18.44;101128.94;5015747;28;45526;-68
2022/08/03 11:30:01;;;;;;;;;2.00;2.00;;;;;43.68;18.53;101122.38;5024604;28;45664;-68
2022/08/03 11:32:47;;;;;;;;;3.50;3.50;;;;;43.96;19.16;101120.38;5017960;28;46337;-68
2022/08/03 11:35:22;;;;;;;;;4.00;4.00;;;;;43.48;18.72;101116.44;5021738;28;45473;-68
2022/08/03 11:37:57;;;;;;;;;3.00;3.00;;;;;43.31;18.50;101113.03;5016122;28;45369;-67
2022/08/03 11:40:48;;;;;;;;;4.50;4.50;;;;;43.30;18.10;101111.38;5022139;28;45348;-67
2022/08/03 11:43:33;;;;;;;;;4.50;4.50;;;;;43.00;18.21;101105.91;5014070;28;45292;-68
2022/08/03 11:46:01;;;;;;;;;5.00;2.50;;;;;42.50;18.50;101111.94;5018134;28;45403;-68